createdAt,value
2022-10-25T00:00:46.613Z,25.81
2022-10-25T00:03:34.980Z,25.77
2022-10-25T00:06:24.243Z,25.80
2022-10-25T00:09:12.868Z,25.77
2022-10-25T00:12:01.400Z,25.80
2022-10-25T00:14:51.169Z,25.77
2022-10-25T00:17:39.633Z,25.76
2022-10-25T00:20:28.172Z,25.78
2022-10-25T00:23:16.911Z,25.81
2022-10-25T00:26:06.677Z,25.77
2022-10-25T00:28:55.803Z,25.77
2022-10-25T00:31:45.935Z,25.75
2022-10-25T00:34:34.534Z,25.76
2022-10-25T00:37:22.957Z,25.79
2022-10-25T00:40:12.518Z,25.79
2022-10-25T00:43:00.950Z,25.79
2022-10-25T00:45:49.469Z,25.75
2022-10-25T00:48:39.319Z,25.75
2022-10-25T00:51:32.268Z,25.80
2022-10-25T00:54:24.304Z,25.77
2022-10-25T00:57:15.085Z,25.80
2022-10-25T01:00:04.729Z,25.79
2022-10-25T01:02:53.423Z,25.77
2022-10-25T01:05:44.186Z,25.75
2022-10-25T01:08:32.734Z,25.75
2022-10-25T01:11:21.626Z,25.74
2022-10-25T01:14:13.618Z,25.74
2022-10-25T01:17:08.768Z,25.77
2022-10-25T01:20:12.733Z,25.73
2022-10-25T01:23:07.447Z,25.75
2022-10-25T01:26:17.092Z,25.75
2022-10-25T01:29:27.334Z,25.80
2022-10-25T01:32:19.875Z,25.80
2022-10-25T01:35:13.815Z,25.75
2022-10-25T01:38:21.278Z,25.71
2022-10-25T01:41:17.314Z,25.76
2022-10-25T01:44:16.359Z,25.71
2022-10-25T01:47:07.267Z,25.73
2022-10-25T01:50:00.031Z,25.69
2022-10-25T01:52:48.530Z,25.71
2022-10-25T01:55:41.860Z,25.75
2022-10-25T01:58:36.834Z,25.76
2022-10-25T02:01:34.013Z,25.75
2022-10-25T02:04:27.744Z,25.78
2022-10-25T02:07:25.114Z,25.80
2022-10-25T02:10:21.974Z,25.74
2022-10-25T02:13:18.222Z,25.72
2022-10-25T02:16:10.251Z,25.75
2022-10-25T02:19:02.373Z,25.73
2022-10-25T02:21:51.411Z,25.73
2022-10-25T02:24:42.115Z,25.74
2022-10-25T02:27:31.821Z,25.80
2022-10-25T02:30:20.897Z,25.77
2022-10-25T02:33:09.545Z,25.75
2022-10-25T02:36:09.616Z,25.74
2022-10-25T02:38:58.847Z,25.73
2022-10-25T02:41:48.604Z,25.75
2022-10-25T02:44:37.211Z,25.75
2022-10-25T02:47:25.627Z,25.80
2022-10-25T02:50:14.237Z,25.77
2022-10-25T02:53:02.657Z,25.74
2022-10-25T02:55:51.100Z,25.71
2022-10-25T02:58:42.314Z,25.71
2022-10-25T03:01:30.880Z,25.69
2022-10-25T03:04:19.461Z,25.71
2022-10-25T03:07:07.992Z,25.74
2022-10-25T03:09:56.473Z,25.71
2022-10-25T03:12:45.149Z,25.73
2022-10-25T03:15:35.240Z,25.74
2022-10-25T03:18:23.679Z,25.76
2022-10-25T03:21:12.138Z,25.72
2022-10-25T03:24:00.662Z,25.68
2022-10-25T03:26:49.081Z,25.68
2022-10-25T03:29:37.514Z,25.69
2022-10-25T03:32:28.783Z,25.72
2022-10-25T03:35:17.229Z,25.71
2022-10-25T03:38:05.750Z,25.71
2022-10-25T03:40:55.014Z,25.71
2022-10-25T03:43:43.435Z,25.73
2022-10-25T03:46:31.947Z,25.70
2022-10-25T03:49:21.874Z,25.69
2022-10-25T03:52:12.595Z,25.70
2022-10-25T03:55:01.092Z,25.75
2022-10-25T03:57:49.788Z,25.74
2022-10-25T04:00:38.804Z,25.76
2022-10-25T04:03:27.325Z,25.75
2022-10-25T04:06:17.082Z,25.81
2022-10-25T04:09:05.682Z,25.79
2022-10-25T04:11:54.118Z,25.76
2022-10-25T04:14:42.650Z,25.82
2022-10-25T04:17:31.462Z,25.81
2022-10-25T04:20:20.959Z,25.83
2022-10-25T04:23:10.790Z,25.82
2022-10-25T04:25:59.261Z,25.69
2022-10-25T04:28:51.729Z,25.66
2022-10-25T04:31:40.237Z,25.62
2022-10-25T04:34:28.747Z,25.62
2022-10-25T04:37:17.401Z,25.65
2022-10-25T04:40:08.584Z,25.66
2022-10-25T04:42:57.017Z,25.87
2022-10-25T04:45:45.485Z,25.71
2022-10-25T04:48:34.026Z,25.76
2022-10-25T04:51:22.555Z,25.77
2022-10-25T04:54:11.086Z,25.74
2022-10-25T04:57:01.007Z,25.74
2022-10-25T04:59:49.536Z,25.75
2022-10-25T05:02:38.029Z,25.69
2022-10-25T05:05:27.161Z,25.67
2022-10-25T05:08:15.782Z,25.68
2022-10-25T05:11:04.192Z,25.71
2022-10-25T05:13:54.047Z,25.76
2022-10-25T05:16:42.503Z,25.77
2022-10-25T05:19:30.953Z,25.77
2022-10-25T05:22:19.502Z,25.75
2022-10-25T05:25:08.648Z,25.77
2022-10-25T05:27:57.149Z,25.71
2022-10-25T05:30:46.917Z,25.67
2022-10-25T05:33:35.416Z,25.67
2022-10-25T05:36:23.888Z,25.68
2022-10-25T05:39:14.514Z,25.70
2022-10-25T05:42:06.294Z,25.70
2022-10-25T05:44:55.387Z,25.67
2022-10-25T05:47:45.182Z,25.67
2022-10-25T05:50:33.604Z,25.71
2022-10-25T05:53:22.112Z,25.68
2022-10-25T05:56:10.626Z,25.68
2022-10-25T05:58:59.061Z,25.68
2022-10-25T06:01:48.360Z,25.73
2022-10-25T06:04:38.223Z,25.69
2022-10-25T06:07:26.720Z,25.68
2022-10-25T06:10:15.774Z,25.71
2022-10-25T06:13:04.206Z,25.68
2022-10-25T06:15:52.699Z,25.69
2022-10-25T06:18:41.365Z,25.74
2022-10-25T06:21:32.007Z,25.74
2022-10-25T06:24:20.432Z,25.75
2022-10-25T06:27:08.919Z,25.73
2022-10-25T06:29:57.543Z,25.70
2022-10-25T06:32:46.443Z,25.73
2022-10-25T06:35:35.237Z,25.84
2022-10-25T06:38:25.059Z,25.86
2022-10-25T06:41:15.130Z,25.79
2022-10-25T06:44:06.364Z,25.89
2022-10-25T06:47:16.555Z,25.79
2022-10-25T06:50:03.814Z,25.80
2022-10-25T06:52:52.226Z,25.74
2022-10-25T06:55:42.410Z,25.71
2022-10-25T06:58:31.600Z,25.73
2022-10-25T07:01:21.741Z,25.77
2022-10-25T07:04:10.449Z,25.85
2022-10-25T07:06:58.836Z,25.83
2022-10-25T07:09:47.314Z,25.83
2022-10-25T07:12:38.985Z,25.77
2022-10-25T07:15:27.508Z,25.83
2022-10-25T07:18:18.283Z,25.83
2022-10-25T07:21:08.857Z,25.84
2022-10-25T07:23:57.599Z,25.83
2022-10-25T07:26:46.160Z,25.83
2022-10-25T07:29:36.013Z,25.88
2022-10-25T07:32:24.468Z,25.84
2022-10-25T07:35:13.027Z,25.82
2022-10-25T07:38:01.569Z,25.77
2022-10-25T07:40:50.009Z,25.79
2022-10-25T07:43:38.746Z,25.91
2022-10-25T07:46:28.629Z,25.83
2022-10-25T07:49:17.432Z,25.83
2022-10-25T07:52:06.236Z,25.83
2022-10-25T07:54:54.706Z,25.95
2022-10-25T07:57:43.228Z,25.89
2022-10-25T08:00:31.921Z,25.92
2022-10-25T08:03:21.839Z,25.82
2022-10-25T08:06:10.334Z,25.81
2022-10-25T08:09:05.422Z,25.82
2022-10-25T08:12:03.609Z,25.83
2022-10-25T08:14:52.035Z,25.87
2022-10-25T08:17:40.481Z,25.91
2022-10-25T08:20:49.636Z,25.86
2022-10-25T08:23:38.908Z,25.87
2022-10-25T08:26:30.158Z,25.88
2022-10-25T08:29:20.410Z,25.87
2022-10-25T08:32:08.810Z,25.87
2022-10-25T08:34:57.258Z,25.94
2022-10-25T08:37:47.569Z,25.94
2022-10-25T08:40:44.707Z,25.92
2022-10-25T08:43:50.397Z,25.88
2022-10-25T08:46:42.776Z,25.92
2022-10-25T08:49:38.649Z,25.97
2022-10-25T08:52:29.464Z,25.98
2022-10-25T08:55:22.239Z,25.94
2022-10-25T08:58:27.840Z,25.92
2022-10-25T09:01:18.437Z,25.94
2022-10-25T09:04:06.991Z,25.92
2022-10-25T09:07:03.585Z,25.95
2022-10-25T09:09:57.829Z,25.95
2022-10-25T09:12:52.468Z,25.96
2022-10-25T09:15:51.811Z,26.00
2022-10-25T09:18:45.969Z,26.00
2022-10-25T09:21:41.819Z,26.02
2022-10-25T09:24:37.585Z,26.04
2022-10-25T09:27:31.634Z,26.05
2022-10-25T09:30:21.748Z,26.00
2022-10-25T09:33:13.181Z,26.01
2022-10-25T09:36:01.959Z,26.03
2022-10-25T09:38:53.711Z,26.01
2022-10-25T09:41:44.814Z,25.97
2022-10-25T09:44:39.404Z,26.04
2022-10-25T09:47:37.107Z,26.03
2022-10-25T09:50:28.005Z,25.97
2022-10-25T09:53:21.597Z,25.99
2022-10-25T09:56:12.418Z,26.03
2022-10-25T09:59:04.345Z,26.02
2022-10-25T10:01:52.969Z,25.95
2022-10-25T10:04:43.449Z,25.99
2022-10-25T10:07:34.499Z,25.95
2022-10-25T10:10:26.978Z,25.89
2022-10-25T10:13:19.984Z,25.89
2022-10-25T10:16:20.309Z,25.87
2022-10-25T10:19:18.254Z,25.98
2022-10-25T10:22:14.740Z,25.93
2022-10-25T10:25:04.908Z,25.91
2022-10-25T10:27:55.573Z,25.95
2022-10-25T10:30:44.235Z,25.92
2022-10-25T10:33:34.010Z,25.91
2022-10-25T10:36:24.913Z,25.88
2022-10-25T10:39:23.477Z,25.94
2022-10-25T10:42:17.403Z,25.92
2022-10-25T10:45:16.529Z,25.89
2022-10-25T10:48:05.175Z,25.91
2022-10-25T10:50:54.279Z,25.92
2022-10-25T10:53:42.766Z,25.92
2022-10-25T10:56:33.388Z,25.89
2022-10-25T10:59:35.622Z,25.92
2022-10-25T11:02:27.855Z,25.94
2022-10-25T11:05:23.023Z,25.87
2022-10-25T11:08:19.577Z,25.83
2022-10-25T11:11:15.511Z,25.84
2022-10-25T11:14:13.820Z,25.77
2022-10-25T11:17:05.325Z,25.83
2022-10-25T11:20:04.969Z,25.83
2022-10-25T11:23:04.186Z,25.88
2022-10-25T11:26:00.622Z,25.80
2022-10-25T11:28:53.540Z,25.83
2022-10-25T11:31:52.596Z,25.87
2022-10-25T11:34:47.257Z,25.84
2022-10-25T11:37:38.534Z,25.92
2022-10-25T11:40:31.404Z,25.88
2022-10-25T11:43:32.606Z,25.92
2022-10-25T11:46:29.033Z,26.00
2022-10-25T11:49:44.917Z,26.19
2022-10-25T11:52:52.147Z,26.17
2022-10-25T11:55:47.644Z,26.16
2022-10-25T11:58:44.349Z,26.24
2022-10-25T12:01:42.469Z,26.25
2022-10-25T12:04:43.599Z,26.30
2022-10-25T12:07:36.882Z,26.33
2022-10-25T12:10:30.883Z,26.33
2022-10-25T12:13:21.276Z,26.34
2022-10-25T12:16:12.493Z,26.50
2022-10-25T12:19:08.944Z,26.50
2022-10-25T12:22:01.695Z,26.50
2022-10-25T12:24:57.207Z,26.43
2022-10-25T12:27:46.483Z,26.52
2022-10-25T12:30:36.181Z,26.70
2022-10-25T12:33:32.592Z,26.73
2022-10-25T12:36:30.726Z,26.68
2022-10-25T12:39:22.928Z,26.77
2022-10-25T12:42:17.778Z,26.83
2022-10-25T12:45:27.823Z,27.01
2022-10-25T12:48:27.909Z,27.03
2022-10-25T12:51:26.592Z,26.92
2022-10-25T12:54:39.323Z,26.92
2022-10-25T12:57:37.110Z,26.82
2022-10-25T13:00:25.950Z,26.76
2022-10-25T13:03:57.148Z,26.73
2022-10-25T13:06:52.291Z,26.53
2022-10-25T13:09:41.169Z,26.56
2022-10-25T13:12:34.047Z,26.75
2022-10-25T13:15:22.626Z,26.79
2022-10-25T13:18:27.816Z,26.65
2022-10-25T13:21:17.638Z,26.53
2022-10-25T13:24:06.481Z,26.49
2022-10-25T13:27:20.089Z,26.54
2022-10-25T13:30:31.866Z,26.43
2022-10-25T13:33:33.590Z,26.35
2022-10-25T13:36:48.091Z,26.44
2022-10-25T13:39:40.693Z,26.37
2022-10-25T13:42:32.859Z,26.51
2022-10-25T13:45:34.637Z,26.42
2022-10-25T13:48:30.255Z,26.32
2022-10-25T13:51:21.301Z,26.22
2022-10-25T13:54:12.805Z,26.22
2022-10-25T13:57:01.221Z,26.21
2022-10-25T14:00:03.312Z,26.20
2022-10-25T14:03:24.509Z,26.18
2022-10-25T14:06:27.359Z,26.18
2022-10-25T14:09:26.208Z,26.15
2022-10-25T14:12:19.361Z,26.15
2022-10-25T14:15:11.007Z,26.10
2022-10-25T14:18:00.918Z,26.10
2022-10-25T14:20:51.330Z,26.10
2022-10-25T14:23:42.213Z,26.09
2022-10-25T14:26:30.966Z,26.10
2022-10-25T14:29:22.136Z,26.07
2022-10-25T14:32:14.489Z,26.05
2022-10-25T14:35:03.858Z,26.08
2022-10-25T14:37:52.788Z,26.05
2022-10-25T14:40:43.230Z,26.03
2022-10-25T14:43:33.824Z,26.13
2022-10-25T14:46:25.984Z,26.09
2022-10-25T14:49:16.869Z,25.98
2022-10-25T14:52:10.962Z,26.05
2022-10-25T14:55:01.883Z,26.00
2022-10-25T14:57:51.926Z,26.03
2022-10-25T15:00:40.460Z,26.04
2022-10-25T15:03:31.286Z,25.92
2022-10-25T15:06:22.530Z,25.79
2022-10-25T15:09:41.885Z,25.69
2022-10-25T15:12:30.646Z,25.66
2022-10-25T15:15:33.973Z,25.63
2022-10-25T15:18:35.505Z,25.65
2022-10-25T15:21:26.045Z,25.61
2022-10-25T15:24:17.882Z,25.65
2022-10-25T15:27:07.045Z,25.53
2022-10-25T15:29:57.022Z,25.65
2022-10-25T15:32:46.964Z,25.55
2022-10-25T15:35:43.219Z,25.55
2022-10-25T15:38:54.369Z,25.55
2022-10-25T15:41:41.596Z,25.60
2022-10-25T15:44:30.048Z,25.54
2022-10-25T15:47:25.325Z,25.51
2022-10-25T15:50:17.100Z,25.51
2022-10-25T15:53:05.600Z,25.60
2022-10-25T15:55:54.245Z,25.59
2022-10-25T15:58:42.710Z,25.55
2022-10-25T16:01:31.456Z,25.61
2022-10-25T16:04:20.939Z,25.66
2022-10-25T16:07:13.210Z,25.69
2022-10-25T16:10:02.101Z,25.70
2022-10-25T16:12:57.132Z,25.77
2022-10-25T16:15:48.393Z,25.75
2022-10-25T16:18:37.417Z,25.77
2022-10-25T16:21:27.066Z,25.77
2022-10-25T16:24:19.663Z,25.86
2022-10-25T16:27:08.282Z,25.87
2022-10-25T16:29:56.798Z,25.89
2022-10-25T16:32:45.960Z,25.82
2022-10-25T16:35:35.043Z,25.86
2022-10-25T16:38:23.930Z,25.87
2022-10-25T16:41:24.012Z,25.88
2022-10-25T16:44:13.086Z,25.79
2022-10-25T16:47:01.742Z,25.78
2022-10-25T16:49:50.337Z,25.75
2022-10-25T16:52:39.260Z,25.77
2022-10-25T16:55:30.491Z,25.82
2022-10-25T16:58:20.861Z,25.80
2022-10-25T17:01:18.948Z,25.82
2022-10-25T17:04:07.860Z,25.83
2022-10-25T17:06:57.091Z,25.84
2022-10-25T17:09:45.963Z,25.88
2022-10-25T17:12:34.523Z,25.88
2022-10-25T17:15:26.525Z,25.87
2022-10-25T17:18:19.435Z,25.86
2022-10-25T17:21:10.065Z,25.86
2022-10-25T17:23:59.021Z,25.89
2022-10-25T17:26:47.834Z,25.84
2022-10-25T17:29:36.406Z,25.83
2022-10-25T17:32:26.386Z,25.89
2022-10-25T17:35:15.105Z,25.84
2022-10-25T17:38:03.834Z,25.88
2022-10-25T17:40:52.465Z,25.89
2022-10-25T17:43:41.947Z,25.91
2022-10-25T17:46:32.338Z,25.97
2022-10-25T17:49:24.504Z,26.04
2022-10-25T17:52:12.937Z,26.04
2022-10-25T17:55:01.840Z,26.05
2022-10-25T17:57:51.172Z,25.94
2022-10-25T18:00:39.779Z,25.94
2022-10-25T18:03:28.316Z,25.98
2022-10-25T18:06:20.526Z,25.98
2022-10-25T18:09:10.651Z,26.43
2022-10-25T18:11:59.117Z,26.26
2022-10-25T18:14:49.323Z,26.17
2022-10-25T18:17:40.677Z,26.16
2022-10-25T18:20:29.171Z,26.16
2022-10-25T18:23:19.040Z,26.12
2022-10-25T18:26:09.072Z,26.10
2022-10-25T18:28:58.588Z,26.18
2022-10-25T18:31:47.144Z,26.16
2022-10-25T18:34:35.652Z,26.14
2022-10-25T18:37:24.158Z,26.12
2022-10-25T18:40:14.587Z,26.10
2022-10-25T18:43:03.376Z,26.09
2022-10-25T18:45:51.958Z,26.10
2022-10-25T18:48:40.462Z,26.10
2022-10-25T18:51:29.839Z,26.13
2022-10-25T18:54:18.421Z,26.12
2022-10-25T18:57:08.278Z,26.14
2022-10-25T18:59:56.796Z,26.09
2022-10-25T19:02:45.436Z,26.07
2022-10-25T19:05:39.958Z,26.08
2022-10-25T19:08:28.520Z,26.05
2022-10-25T19:11:17.340Z,26.04
2022-10-25T19:14:07.419Z,26.04
2022-10-25T19:16:55.857Z,26.04
2022-10-25T19:19:44.724Z,26.02
2022-10-25T19:22:33.174Z,26.03
2022-10-25T19:25:24.034Z,26.02
2022-10-25T19:28:15.580Z,26.01
2022-10-25T19:31:12.616Z,26.06
2022-10-25T19:34:03.023Z,26.05
2022-10-25T19:36:52.036Z,26.04
2022-10-25T19:39:42.410Z,26.04
2022-10-25T19:42:30.984Z,26.07
2022-10-25T19:45:19.533Z,26.08
2022-10-25T19:48:09.354Z,26.05
2022-10-25T19:50:58.162Z,26.15
2022-10-25T19:53:47.130Z,26.09
2022-10-25T19:56:37.319Z,26.12
2022-10-25T19:59:28.144Z,26.17
2022-10-25T20:02:16.766Z,26.18
2022-10-25T20:05:07.557Z,26.34
2022-10-25T20:07:56.137Z,26.76
2022-10-25T20:10:44.814Z,27.03
2022-10-25T20:13:33.373Z,27.12
2022-10-25T20:16:21.837Z,27.29
2022-10-25T20:19:14.060Z,27.38
2022-10-25T20:22:05.555Z,27.29
2022-10-25T20:24:54.653Z,27.21
2022-10-25T20:27:43.239Z,27.27
2022-10-25T20:30:32.160Z,27.27
2022-10-25T20:33:21.177Z,27.45
2022-10-25T20:36:11.943Z,27.54
2022-10-25T20:39:01.728Z,27.59
2022-10-25T20:41:50.371Z,27.59
2022-10-25T20:44:38.852Z,27.58
2022-10-25T20:47:27.369Z,27.55
2022-10-25T20:50:15.949Z,27.58
2022-10-25T20:53:11.309Z,27.62
2022-10-25T20:56:01.273Z,27.57
2022-10-25T20:58:49.958Z,27.49
2022-10-25T21:01:38.499Z,27.44
2022-10-25T21:04:42.482Z,27.38
2022-10-25T21:07:35.726Z,27.58
2022-10-25T21:10:24.323Z,27.62
2022-10-25T21:13:14.112Z,27.58
2022-10-25T21:16:06.794Z,27.48
2022-10-25T21:18:55.205Z,27.38
2022-10-25T21:21:43.615Z,27.47
2022-10-25T21:24:32.098Z,27.50
2022-10-25T21:27:20.633Z,27.57
2022-10-25T21:30:11.544Z,27.61
2022-10-25T21:33:00.084Z,27.45
2022-10-25T21:35:48.652Z,27.57
2022-10-25T21:38:37.398Z,27.69
2022-10-25T21:41:29.965Z,27.74
2022-10-25T21:44:19.165Z,27.62
2022-10-25T21:47:09.165Z,27.62
2022-10-25T21:49:58.479Z,27.60
2022-10-25T21:52:47.603Z,27.64
2022-10-25T21:55:36.163Z,27.65
2022-10-25T21:58:24.618Z,27.60
2022-10-25T22:01:14.496Z,27.61
2022-10-25T22:04:04.599Z,27.61
2022-10-25T22:06:53.199Z,27.62
2022-10-25T22:09:42.002Z,27.65
2022-10-25T22:12:30.497Z,27.61
2022-10-25T22:15:19.130Z,27.13
2022-10-25T22:18:07.678Z,26.98
2022-10-25T22:20:59.448Z,26.88
2022-10-25T22:23:48.300Z,26.77
2022-10-25T22:26:37.847Z,26.70
2022-10-25T22:29:26.503Z,26.68
2022-10-25T22:32:14.899Z,26.61
2022-10-25T22:35:03.370Z,26.59
2022-10-25T22:37:53.227Z,26.55
2022-10-25T22:40:42.278Z,26.49
2022-10-25T22:43:30.786Z,26.47
2022-10-25T22:46:22.197Z,26.47
2022-10-25T22:49:11.083Z,26.45
2022-10-25T22:51:59.546Z,26.40
2022-10-25T22:54:51.671Z,26.37
2022-10-25T22:57:40.211Z,26.33
2022-10-25T23:00:28.761Z,26.30
2022-10-25T23:03:17.445Z,26.37
2022-10-25T23:06:06.718Z,26.35
2022-10-25T23:08:55.581Z,26.31
2022-10-25T23:11:46.013Z,26.28
2022-10-25T23:14:34.497Z,26.28
2022-10-25T23:17:22.969Z,26.24
2022-10-25T23:20:12.063Z,26.21
2022-10-25T23:23:00.538Z,26.18
2022-10-25T23:25:50.470Z,26.15
2022-10-25T23:28:40.325Z,26.15
2022-10-25T23:31:29.180Z,26.13
2022-10-25T23:34:17.648Z,26.11
2022-10-25T23:37:06.455Z,26.07
2022-10-25T23:39:54.953Z,26.13
2022-10-25T23:45:39.822Z,26.08
2022-10-25T23:48:28.492Z,26.12
2022-10-25T23:51:19.066Z,26.07
2022-10-25T23:54:09.610Z,26.10
2022-10-25T23:56:58.042Z,26.05
2022-10-25T23:59:46.518Z,26.03
